createdAt,value
2018-11-23T00:01:29.331Z,2.90
2018-11-23T00:03:57.637Z,2.90
2018-11-23T00:06:25.845Z,2.90
2018-11-23T00:08:54.056Z,3.00
2018-11-23T00:11:22.272Z,3.00
2018-11-23T00:13:50.540Z,3.00
2018-11-23T00:16:18.920Z,3.10
2018-11-23T00:18:47.168Z,3.00
2018-11-23T00:21:15.380Z,3.10
2018-11-23T00:23:46.648Z,3.00
2018-11-23T00:26:15.413Z,3.00
2018-11-23T00:28:44.369Z,3.10
2018-11-23T00:31:12.579Z,3.10
2018-11-23T00:33:40.812Z,3.10
2018-11-23T00:36:09.040Z,3.10
2018-11-23T00:38:37.254Z,3.10
2018-11-23T00:41:06.037Z,3.10
2018-11-23T00:43:34.249Z,3.10
2018-11-23T00:46:03.301Z,3.10
2018-11-23T00:48:31.525Z,3.20
2018-11-23T00:50:59.791Z,3.20
2018-11-23T00:53:32.506Z,3.30
2018-11-23T00:56:00.749Z,3.30
2018-11-23T00:58:28.957Z,3.30
2018-11-23T01:00:57.252Z,3.20
2018-11-23T01:03:25.504Z,3.20
2018-11-23T01:05:53.701Z,3.20
2018-11-23T01:08:31.884Z,3.20
2018-11-23T01:11:03.660Z,3.20
2018-11-23T01:13:31.875Z,3.20
2018-11-23T01:16:00.093Z,3.20
2018-11-23T01:18:28.364Z,3.20
2018-11-23T01:20:56.585Z,3.20
2018-11-23T01:23:25.007Z,3.20
2018-11-23T01:25:53.493Z,3.20
2018-11-23T01:28:21.902Z,3.20
2018-11-23T01:30:50.092Z,3.30
2018-11-23T01:33:18.310Z,3.30
2018-11-23T01:35:46.483Z,3.20
2018-11-23T01:38:14.722Z,3.20
2018-11-23T01:40:42.939Z,3.20
2018-11-23T01:43:11.148Z,3.20
2018-11-23T01:45:39.340Z,3.20
2018-11-23T01:48:07.551Z,3.20
2018-11-23T01:50:35.782Z,3.20
2018-11-23T01:53:04.012Z,3.20
2018-11-23T01:55:35.605Z,3.20
2018-11-23T01:58:04.249Z,3.20
2018-11-23T02:00:32.465Z,3.20
2018-11-23T02:03:01.159Z,3.20
2018-11-23T02:05:29.380Z,3.10
2018-11-23T02:07:57.539Z,3.10
2018-11-23T02:10:25.705Z,3.10
2018-11-23T02:12:53.950Z,3.10
2018-11-23T02:15:22.893Z,3.10
2018-11-23T02:17:51.353Z,3.10
2018-11-23T02:20:20.268Z,3.10
2018-11-23T02:22:48.616Z,3.30
2018-11-23T02:25:19.945Z,3.30
2018-11-23T02:27:49.061Z,3.30
2018-11-23T02:30:19.008Z,3.30
2018-11-23T02:32:47.225Z,3.30
2018-11-23T02:35:15.869Z,3.30
2018-11-23T02:37:44.048Z,3.30
2018-11-23T02:40:13.620Z,3.20
2018-11-23T02:42:41.943Z,3.30
2018-11-23T02:45:13.490Z,3.20
2018-11-23T02:47:42.368Z,3.30
2018-11-23T02:50:10.661Z,3.30
2018-11-23T02:52:40.128Z,3.30
2018-11-23T02:55:10.374Z,3.30
2018-11-23T02:57:38.765Z,3.30
2018-11-23T03:00:10.168Z,3.30
2018-11-23T03:02:38.437Z,3.20
2018-11-23T03:05:07.948Z,3.20
2018-11-23T03:07:36.135Z,3.10
2018-11-23T03:10:05.228Z,3.10
2018-11-23T03:12:33.480Z,3.10
2018-11-23T03:15:01.740Z,3.00
2018-11-23T03:17:29.924Z,3.00
2018-11-23T03:19:58.155Z,3.10
2018-11-23T03:22:26.352Z,3.10
2018-11-23T03:24:54.644Z,3.10
2018-11-23T03:27:22.861Z,3.10
2018-11-23T03:29:51.047Z,3.10
2018-11-23T03:32:19.267Z,3.00
2018-11-23T03:34:47.487Z,2.90
2018-11-23T03:37:15.680Z,3.00
2018-11-23T03:39:43.918Z,2.90
2018-11-23T03:42:12.258Z,2.90
2018-11-23T03:44:40.478Z,2.90
2018-11-23T03:47:08.713Z,2.90
2018-11-23T03:49:36.998Z,2.90
2018-11-23T03:52:05.417Z,2.90
2018-11-23T03:54:33.664Z,2.90
2018-11-23T03:57:01.913Z,3.00
2018-11-23T03:59:30.149Z,3.00
2018-11-23T04:01:58.346Z,3.00
2018-11-23T04:04:26.541Z,3.00
2018-11-23T04:06:54.823Z,2.90
2018-11-23T04:09:23.182Z,2.90
2018-11-23T04:11:51.396Z,2.80
2018-11-23T04:14:19.678Z,2.80
2018-11-23T04:16:47.872Z,2.80
2018-11-23T04:19:17.027Z,2.70
2018-11-23T04:21:45.221Z,2.70
2018-11-23T04:24:13.473Z,2.70
2018-11-23T04:26:41.747Z,2.60
2018-11-23T04:29:10.140Z,2.60
2018-11-23T04:31:38.349Z,2.50
2018-11-23T04:34:06.754Z,2.50
2018-11-23T04:36:35.392Z,2.50
2018-11-23T04:39:04.426Z,2.50
2018-11-23T04:41:32.664Z,2.50
2018-11-23T04:44:01.500Z,2.50
2018-11-23T04:46:29.743Z,2.50
2018-11-23T04:48:58.000Z,2.50
2018-11-23T04:51:26.296Z,2.40
2018-11-23T04:53:54.868Z,2.40
2018-11-23T04:56:23.105Z,2.30
2018-11-23T04:58:51.427Z,2.30
2018-11-23T05:01:19.656Z,2.30
2018-11-23T05:03:47.988Z,2.20
2018-11-23T05:06:16.227Z,2.30
2018-11-23T05:08:44.419Z,2.30
2018-11-23T05:11:12.637Z,2.40
2018-11-23T05:13:44.373Z,2.40
2018-11-23T05:16:12.574Z,2.40
2018-11-23T05:18:40.943Z,2.40
2018-11-23T05:21:09.152Z,2.40
2018-11-23T05:23:37.421Z,2.40
2018-11-23T05:26:05.752Z,2.40
2018-11-23T05:28:44.344Z,2.40
2018-11-23T05:31:12.989Z,2.50
2018-11-23T05:33:41.237Z,2.40
2018-11-23T05:36:09.481Z,2.40
2018-11-23T05:38:37.715Z,2.50
2018-11-23T05:41:07.514Z,2.50
2018-11-23T05:43:38.696Z,2.40
2018-11-23T05:46:07.363Z,2.40
2018-11-23T05:48:35.592Z,2.40
2018-11-23T05:51:03.833Z,2.40
2018-11-23T05:53:39.004Z,2.40
2018-11-23T05:56:07.502Z,2.40
2018-11-23T05:58:35.704Z,2.40
2018-11-23T06:01:07.081Z,2.40
2018-11-23T06:03:35.350Z,2.40
2018-11-23T06:06:03.587Z,2.40
2018-11-23T06:08:32.099Z,2.30
2018-11-23T06:11:00.312Z,2.30
2018-11-23T06:13:28.489Z,2.20
2018-11-23T06:15:59.715Z,2.30
2018-11-23T06:18:28.912Z,2.30
2018-11-23T06:20:57.092Z,2.20
2018-11-23T06:23:25.340Z,2.20
2018-11-23T06:26:06.904Z,2.30
2018-11-23T06:28:35.839Z,2.30
2018-11-23T06:31:11.820Z,2.30
2018-11-23T06:33:41.484Z,2.30
2018-11-23T06:36:09.694Z,2.20
2018-11-23T06:38:38.696Z,2.20
2018-11-23T06:41:10.547Z,2.30
2018-11-23T06:43:36.202Z,2.30
2018-11-23T06:46:08.433Z,2.30
2018-11-23T06:48:37.522Z,2.30
2018-11-23T06:51:06.259Z,2.40
2018-11-23T06:53:34.493Z,2.40
2018-11-23T06:56:03.354Z,2.40
2018-11-23T06:58:32.776Z,2.50
2018-11-23T07:01:01.007Z,2.40
2018-11-23T07:03:29.232Z,2.50
2018-11-23T07:05:58.057Z,2.50
2018-11-23T07:08:26.355Z,2.50
2018-11-23T07:10:58.320Z,2.50
2018-11-23T07:13:27.016Z,2.60
2018-11-23T07:15:58.152Z,2.60
2018-11-23T07:18:26.581Z,2.60
2018-11-23T07:20:54.807Z,2.60
2018-11-23T07:23:23.309Z,2.60
2018-11-23T07:25:51.992Z,2.60
2018-11-23T07:28:20.283Z,2.70
2018-11-23T07:30:48.452Z,2.70
2018-11-23T07:33:16.735Z,2.70
2018-11-23T07:35:44.940Z,2.80
2018-11-23T07:38:13.152Z,2.80
2018-11-23T07:42:49.580Z,2.80
2018-11-23T07:45:17.833Z,2.70
2018-11-23T07:47:46.036Z,2.80
2018-11-23T07:50:14.284Z,2.90
2018-11-23T07:52:42.534Z,2.90
2018-11-23T07:55:11.712Z,3.00
2018-11-23T07:57:40.094Z,3.00
2018-11-23T08:00:12.157Z,3.00
2018-11-23T08:02:40.639Z,3.10
2018-11-23T08:05:10.569Z,3.10
2018-11-23T08:07:39.042Z,3.10
2018-11-23T08:10:09.612Z,3.10
2018-11-23T08:12:38.244Z,3.10
2018-11-23T08:15:11.557Z,3.20
2018-11-23T08:17:40.122Z,3.20
2018-11-23T08:20:09.796Z,3.30
2018-11-23T08:22:38.293Z,3.30
2018-11-23T08:25:07.573Z,3.40
2018-11-23T08:27:35.922Z,3.70
2018-11-23T08:30:08.324Z,3.80
2018-11-23T08:32:36.479Z,3.80
2018-11-23T08:35:05.903Z,3.80
2018-11-23T08:37:34.185Z,3.90
2018-11-23T08:40:02.416Z,3.80
2018-11-23T08:42:30.688Z,3.80
2018-11-23T08:44:59.088Z,3.70
2018-11-23T08:47:30.296Z,3.80
2018-11-23T08:49:58.536Z,3.70
2018-11-23T08:52:26.745Z,3.70
2018-11-23T08:54:55.120Z,3.80
2018-11-23T08:57:23.629Z,3.90
2018-11-23T08:59:51.824Z,3.90
2018-11-23T09:02:20.055Z,4.00
2018-11-23T09:04:48.305Z,4.00
2018-11-23T09:07:16.485Z,3.90
2018-11-23T09:09:46.088Z,3.90
2018-11-23T09:12:14.472Z,4.00
2018-11-23T09:14:42.691Z,4.10
2018-11-23T09:17:10.909Z,4.10
2018-11-23T09:19:39.519Z,4.20
2018-11-23T09:22:08.001Z,4.30
2018-11-23T09:24:36.284Z,4.30
2018-11-23T09:27:04.500Z,4.50
2018-11-23T09:29:33.242Z,4.40
2018-11-23T09:32:01.455Z,4.40
2018-11-23T09:34:29.692Z,4.50
2018-11-23T09:36:58.888Z,4.60
2018-11-23T09:39:27.114Z,4.60
2018-11-23T09:41:55.317Z,4.60
2018-11-23T09:44:23.930Z,4.60
2018-11-23T09:46:52.267Z,4.70
2018-11-23T09:49:20.521Z,4.70
2018-11-23T09:51:48.777Z,4.70
2018-11-23T09:54:17.124Z,4.70
2018-11-23T09:56:45.364Z,4.60
2018-11-23T09:59:13.633Z,4.60
2018-11-23T10:01:41.901Z,4.70
2018-11-23T10:04:10.138Z,4.70
2018-11-23T10:06:38.697Z,4.80
2018-11-23T10:09:07.808Z,4.90
2018-11-23T10:11:36.043Z,4.90
2018-11-23T10:14:04.320Z,5.00
2018-11-23T10:16:32.656Z,5.00
2018-11-23T10:19:00.872Z,5.00
2018-11-23T10:21:29.101Z,5.10
2018-11-23T10:23:57.744Z,5.10
2018-11-23T10:26:26.049Z,5.10
2018-11-23T10:28:54.257Z,5.20
2018-11-23T10:31:22.457Z,5.10
2018-11-23T10:33:50.641Z,4.90
2018-11-23T10:36:18.882Z,4.90
2018-11-23T10:38:47.065Z,5.00
2018-11-23T10:41:15.312Z,5.00
2018-11-23T10:43:43.512Z,5.00
2018-11-23T10:46:11.766Z,5.00
2018-11-23T10:48:39.985Z,5.00
2018-11-23T10:51:08.302Z,4.90
2018-11-23T10:53:36.488Z,4.90
2018-11-23T10:56:04.722Z,5.00
2018-11-23T10:58:32.977Z,5.00
2018-11-23T11:01:06.740Z,5.00
2018-11-23T11:03:38.222Z,5.10
2018-11-23T11:06:13.242Z,5.10
2018-11-23T11:08:42.315Z,5.20
2018-11-23T11:11:13.679Z,5.30
2018-11-23T11:13:39.140Z,5.20
2018-11-23T11:16:07.348Z,5.20
2018-11-23T11:18:35.536Z,5.20
2018-11-23T11:21:07.656Z,5.20
2018-11-23T11:23:35.835Z,5.20
2018-11-23T11:26:04.094Z,5.30
2018-11-23T11:28:32.280Z,5.30
2018-11-23T11:31:00.496Z,5.30
2018-11-23T11:33:28.735Z,5.30
2018-11-23T11:36:07.387Z,5.30
2018-11-23T11:38:35.620Z,5.30
2018-11-23T11:41:04.812Z,5.30
2018-11-23T11:43:33.079Z,5.30
2018-11-23T11:46:01.313Z,5.30
2018-11-23T11:48:29.646Z,5.30
2018-11-23T11:51:01.454Z,5.40
2018-11-23T11:53:30.029Z,5.30
2018-11-23T11:55:58.302Z,5.40
2018-11-23T11:58:26.619Z,5.30
2018-11-23T12:00:57.843Z,5.30
2018-11-23T12:03:26.036Z,5.30
2018-11-23T12:06:02.313Z,5.30
2018-11-23T12:08:31.482Z,5.20
2018-11-23T12:10:59.702Z,5.30
2018-11-23T12:13:27.923Z,5.40
2018-11-23T12:15:56.189Z,5.50
2018-11-23T12:18:24.434Z,5.50
2018-11-23T12:20:52.710Z,5.50
2018-11-23T12:23:21.877Z,5.50
2018-11-23T12:25:50.714Z,5.60
2018-11-23T12:28:18.932Z,5.60
2018-11-23T12:30:47.126Z,5.70
2018-11-23T12:33:15.808Z,5.70
2018-11-23T12:35:56.675Z,5.70
2018-11-23T12:38:24.911Z,5.70
2018-11-23T12:40:53.250Z,5.60
2018-11-23T12:43:21.606Z,5.60
2018-11-23T12:45:49.836Z,5.60
2018-11-23T12:48:18.118Z,5.60
2018-11-23T12:50:47.116Z,5.60
2018-11-23T12:53:15.336Z,5.60
2018-11-23T12:55:43.560Z,5.60
2018-11-23T12:58:12.333Z,5.70
2018-11-23T13:00:40.605Z,5.60
2018-11-23T13:03:08.813Z,5.50
2018-11-23T13:05:40.312Z,5.50
2018-11-23T13:08:08.484Z,5.50
2018-11-23T13:10:37.385Z,5.50
2018-11-23T13:13:05.660Z,5.50
2018-11-23T13:15:33.999Z,5.40
2018-11-23T13:18:02.519Z,5.40
2018-11-23T13:20:30.739Z,5.40
2018-11-23T13:22:58.939Z,5.40
2018-11-23T13:25:28.815Z,5.40
2018-11-23T13:27:57.169Z,5.40
2018-11-23T13:30:27.203Z,5.20
2018-11-23T13:32:55.410Z,5.20
2018-11-23T13:35:23.821Z,5.20
2018-11-23T13:37:52.066Z,5.10
2018-11-23T13:40:21.599Z,5.10
2018-11-23T13:42:50.272Z,5.10
2018-11-23T13:45:20.757Z,5.00
2018-11-23T13:47:49.445Z,5.00
2018-11-23T13:50:18.992Z,5.00
2018-11-23T13:52:48.048Z,4.90
2018-11-23T13:55:16.258Z,4.90
2018-11-23T13:57:44.490Z,4.90
2018-11-23T14:00:19.529Z,4.90
2018-11-23T14:02:48.155Z,4.90
2018-11-23T14:05:17.561Z,4.90
2018-11-23T14:07:47.133Z,5.00
2018-11-23T14:10:16.738Z,4.90
2018-11-23T14:12:45.320Z,5.00
2018-11-23T14:15:17.385Z,5.00
2018-11-23T14:17:46.478Z,4.90
2018-11-23T14:20:15.547Z,5.00
2018-11-23T14:22:43.853Z,5.00
2018-11-23T14:25:13.979Z,5.00
2018-11-23T14:27:42.609Z,5.00
2018-11-23T14:30:14.345Z,5.00
2018-11-23T14:32:42.647Z,4.90
2018-11-23T14:35:12.807Z,4.90
2018-11-23T14:37:49.080Z,4.80
2018-11-23T14:40:17.555Z,4.80
2018-11-23T14:42:46.728Z,4.80
2018-11-23T14:45:20.540Z,4.80
2018-11-23T14:47:49.255Z,4.80
2018-11-23T14:50:19.772Z,4.80
2018-11-23T14:52:52.618Z,4.80
2018-11-23T14:55:21.051Z,4.80
2018-11-23T14:57:49.229Z,4.80
2018-11-23T15:00:21.318Z,4.70
2018-11-23T15:02:50.727Z,4.70
2018-11-23T15:05:19.341Z,4.70
2018-11-23T15:07:52.276Z,4.60
2018-11-23T15:10:21.965Z,4.70
2018-11-23T15:12:51.341Z,4.60
2018-11-23T15:15:20.820Z,4.60
2018-11-23T15:17:49.839Z,4.60
2018-11-23T15:20:19.705Z,4.60
2018-11-23T15:22:52.867Z,4.60
2018-11-23T15:25:21.075Z,4.60
2018-11-23T15:27:50.053Z,4.50
2018-11-23T15:30:21.973Z,4.50
2018-11-23T15:32:50.545Z,4.40
2018-11-23T15:35:18.900Z,4.40
2018-11-23T15:37:47.091Z,4.40
2018-11-23T15:40:20.120Z,4.40
2018-11-23T15:42:49.180Z,4.30
2018-11-23T15:45:18.821Z,4.30
2018-11-23T15:47:47.097Z,4.30
2018-11-23T15:50:20.607Z,4.30
2018-11-23T15:52:49.108Z,4.40
2018-11-23T15:55:19.792Z,4.40
2018-11-23T15:57:48.801Z,4.30
2018-11-23T16:00:19.858Z,4.30
2018-11-23T16:02:48.631Z,4.30
2018-11-23T16:05:18.067Z,4.30
2018-11-23T16:07:46.765Z,4.30
2018-11-23T16:10:21.688Z,4.30
2018-11-23T16:12:51.160Z,4.30
2018-11-23T16:15:21.314Z,4.30
2018-11-23T16:17:50.471Z,4.30
2018-11-23T16:20:20.798Z,4.30
2018-11-23T16:22:50.379Z,4.30
2018-11-23T16:25:23.328Z,4.30
2018-11-23T16:27:53.028Z,4.30
2018-11-23T16:30:24.608Z,4.30
2018-11-23T16:32:54.030Z,4.30
2018-11-23T16:35:23.669Z,4.30
2018-11-23T16:37:53.145Z,4.30
2018-11-23T16:40:25.799Z,4.40
2018-11-23T16:42:54.630Z,4.30
2018-11-23T16:45:24.390Z,4.40
2018-11-23T16:47:53.345Z,4.40
2018-11-23T16:50:22.040Z,4.40
2018-11-23T16:52:50.916Z,4.40
2018-11-23T16:55:20.310Z,4.30
2018-11-23T16:57:49.929Z,4.20
2018-11-23T17:00:24.581Z,4.20
2018-11-23T17:02:53.472Z,4.10
2018-11-23T17:05:23.341Z,4.10
2018-11-23T17:07:51.525Z,4.10
2018-11-23T17:10:23.740Z,4.10
2018-11-23T17:12:51.963Z,4.00
2018-11-23T17:15:22.299Z,3.90
2018-11-23T17:17:50.516Z,3.80
2018-11-23T17:20:20.178Z,3.80
2018-11-23T17:22:50.255Z,3.70
2018-11-23T17:25:20.103Z,3.60
2018-11-23T17:27:49.379Z,3.50
2018-11-23T17:30:18.956Z,3.50
2018-11-23T17:32:47.197Z,3.50
2018-11-23T17:35:15.461Z,3.40
2018-11-23T17:37:44.137Z,3.40
2018-11-23T17:40:14.080Z,3.40
2018-11-23T17:42:42.534Z,3.30
2018-11-23T17:45:12.993Z,3.30
2018-11-23T17:47:41.223Z,3.20
2018-11-23T17:50:11.150Z,3.20
2018-11-23T17:52:39.662Z,3.20
2018-11-23T17:55:08.755Z,3.20
2018-11-23T17:57:37.050Z,3.20
2018-11-23T18:00:09.212Z,3.10
2018-11-23T18:02:37.464Z,3.10
2018-11-23T18:05:07.508Z,3.10
2018-11-23T18:07:35.488Z,3.10
2018-11-23T18:10:04.761Z,3.10
2018-11-23T18:12:32.959Z,3.10
2018-11-23T18:15:01.217Z,3.00
2018-11-23T18:17:29.926Z,3.00
2018-11-23T18:19:58.135Z,2.90
2018-11-23T18:22:26.406Z,3.00
2018-11-23T18:24:54.825Z,3.00
2018-11-23T18:27:23.028Z,3.00
2018-11-23T18:29:51.200Z,3.00
2018-11-23T18:32:19.494Z,2.90
2018-11-23T18:34:47.683Z,2.90
2018-11-23T18:37:15.867Z,2.90
2018-11-23T18:39:44.171Z,2.80
2018-11-23T18:42:12.356Z,2.90
2018-11-23T18:44:40.539Z,2.80
2018-11-23T18:47:08.741Z,2.80
2018-11-23T18:49:37.012Z,2.80
2018-11-23T18:52:05.391Z,2.80
2018-11-23T18:54:33.646Z,2.70
2018-11-23T18:57:01.864Z,2.70
2018-11-23T18:59:30.041Z,2.70
2018-11-23T19:01:58.269Z,2.70
2018-11-23T19:04:26.469Z,2.70
2018-11-23T19:06:54.988Z,2.70
2018-11-23T19:09:23.214Z,2.70
2018-11-23T19:11:51.421Z,2.60
2018-11-23T19:14:19.684Z,2.70
2018-11-23T19:16:47.861Z,2.70
2018-11-23T19:19:16.152Z,2.70
2018-11-23T19:21:44.432Z,2.70
2018-11-23T19:24:12.664Z,2.70
2018-11-23T19:26:40.852Z,2.60
2018-11-23T19:29:09.092Z,2.60
2018-11-23T19:31:37.605Z,2.70
2018-11-23T19:34:06.030Z,2.60
2018-11-23T19:36:34.224Z,2.60
2018-11-23T19:39:02.501Z,2.50
2018-11-23T19:41:31.617Z,2.50
2018-11-23T19:43:59.838Z,2.50
2018-11-23T19:46:28.073Z,2.50
2018-11-23T19:48:56.593Z,2.40
2018-11-23T19:51:24.884Z,2.30
2018-11-23T19:53:53.316Z,2.30
2018-11-23T19:56:21.612Z,2.20
2018-11-23T19:58:49.811Z,2.20
2018-11-23T20:01:17.972Z,2.20
2018-11-23T20:03:46.194Z,2.20
2018-11-23T20:06:14.477Z,2.10
2018-11-23T20:08:42.673Z,2.20
2018-11-23T20:11:11.014Z,2.10
2018-11-23T20:13:39.378Z,2.10
2018-11-23T20:16:07.649Z,2.10
2018-11-23T20:18:36.441Z,2.00
2018-11-23T20:21:05.464Z,1.90
2018-11-23T20:23:33.639Z,1.90
2018-11-23T20:26:01.842Z,1.90
2018-11-23T20:28:30.076Z,1.80
2018-11-23T20:30:58.342Z,1.70
2018-11-23T20:33:26.661Z,1.60
2018-11-23T20:35:54.974Z,1.70
2018-11-23T20:38:23.163Z,1.60
2018-11-23T20:40:51.454Z,1.40
2018-11-23T20:43:19.644Z,1.30
2018-11-23T20:45:47.864Z,1.30
2018-11-23T20:48:16.063Z,1.30
2018-11-23T20:50:44.361Z,1.40
2018-11-23T20:53:12.543Z,1.60
2018-11-23T20:55:40.774Z,1.60
2018-11-23T20:58:09.148Z,1.70
2018-11-23T21:00:37.333Z,1.70
2018-11-23T21:03:05.563Z,1.70
2018-11-23T21:05:33.777Z,1.80
2018-11-23T21:08:01.955Z,1.80
2018-11-23T21:10:30.141Z,1.80
2018-11-23T21:12:58.384Z,1.90
2018-11-23T21:15:27.778Z,1.90
2018-11-23T21:17:56.795Z,2.00
2018-11-23T21:20:24.968Z,1.90
2018-11-23T21:22:53.177Z,1.90
2018-11-23T21:25:21.323Z,2.00
2018-11-23T21:27:49.494Z,2.00
2018-11-23T21:30:22.109Z,2.00
2018-11-23T21:32:50.687Z,1.90
2018-11-23T21:35:18.865Z,2.00
2018-11-23T21:37:47.075Z,2.00
2018-11-23T21:40:16.896Z,2.00
2018-11-23T21:42:45.128Z,2.00
2018-11-23T21:45:15.117Z,1.90
2018-11-23T21:47:46.576Z,2.00
2018-11-23T21:50:15.881Z,2.00
2018-11-23T21:52:44.090Z,2.10
2018-11-23T21:55:13.744Z,2.10
2018-11-23T21:57:41.965Z,2.00
2018-11-23T22:00:12.320Z,2.10
2018-11-23T22:02:40.548Z,2.20
2018-11-23T22:05:09.481Z,2.20
2018-11-23T22:07:37.691Z,2.30
2018-11-23T22:10:09.605Z,2.40
2018-11-23T22:12:37.793Z,2.40
2018-11-23T22:15:12.825Z,2.50
2018-11-23T22:17:41.001Z,2.50
2018-11-23T22:20:12.289Z,2.50
2018-11-23T22:22:40.687Z,2.60
2018-11-23T22:25:10.146Z,2.60
2018-11-23T22:27:38.336Z,2.50
2018-11-23T22:30:18.741Z,2.50
2018-11-23T22:32:47.603Z,2.50
2018-11-23T22:35:15.793Z,2.50
2018-11-23T22:37:43.971Z,2.50
2018-11-23T22:40:13.640Z,2.50
2018-11-23T22:42:44.637Z,2.50
2018-11-23T22:45:17.254Z,2.50
2018-11-23T22:47:45.554Z,2.40
2018-11-23T22:50:17.815Z,2.40
2018-11-23T22:52:46.110Z,2.30
2018-11-23T22:55:15.048Z,2.40
2018-11-23T22:57:44.017Z,2.50
2018-11-23T23:00:29.637Z,2.50
2018-11-23T23:02:57.820Z,2.50
2018-11-23T23:05:27.009Z,2.50
2018-11-23T23:07:55.547Z,2.50
2018-11-23T23:10:23.752Z,2.40
2018-11-23T23:12:51.953Z,2.40
2018-11-23T23:15:20.143Z,2.40
2018-11-23T23:17:48.359Z,2.40
2018-11-23T23:20:18.869Z,2.40
2018-11-23T23:22:47.082Z,2.40
2018-11-23T23:25:15.313Z,2.50
2018-11-23T23:27:43.492Z,2.40
2018-11-23T23:30:16.640Z,2.40
2018-11-23T23:32:45.405Z,2.40
2018-11-23T23:35:14.536Z,2.30
2018-11-23T23:37:42.747Z,2.30
2018-11-23T23:40:12.930Z,2.30
2018-11-23T23:42:41.113Z,2.20
2018-11-23T23:45:13.994Z,2.10
2018-11-23T23:47:43.052Z,2.10
2018-11-23T23:50:15.412Z,2.10
2018-11-23T23:52:43.608Z,2.10
2018-11-23T23:55:11.832Z,2.10
2018-11-23T23:57:41.202Z,2.20
